Time;durP1;ratioP1;P1;durP2;ratioP2;P2;SDS_P1;SDS_P2;PMS_P1;PMS_P2;Temp;Humidity;BMP_temperature;BMP_pressure;BME280_temperature;BME280_humidity;BME280_pressure;Samples;Min_cycle;Max_cycle;Signal;HPM_P1;HPM_P2
2024/04/21 00:00:19;;;;;;;10.65;1.60;;;;;;;;;;5265702;26;95804;-56
2024/04/21 00:02:44;;;;;;;11.88;2.38;;;;;;;;;;5265282;26;96308;-56
2024/04/21 00:05:10;;;;;;;10.25;2.30;;;;;;;;;;5263943;26;96007;-52
2024/04/21 00:07:35;;;;;;;7.05;0.70;;;;;;;;;;5261986;26;97516;-51
2024/04/21 00:10:01;;;;;;;6.75;1.00;;;;;;;;;;5246559;26;95939;-51
2024/04/21 00:12:26;;;;;;;9.57;1.10;;;;;;;;;;5262466;26;97743;-51
2024/04/21 00:14:51;;;;;;;10.77;1.20;;;;;;;;;;5310772;26;96769;-56
2024/04/21 00:17:16;;;;;;;9.20;1.52;;;;;;;;;;5305073;26;97226;-56
2024/04/21 00:19:42;;;;;;;10.70;1.58;;;;;;;;;;5263105;26;95881;-50
2024/04/21 00:22:07;;;;;;;6.03;1.27;;;;;;;;;;5263660;26;95881;-50
2024/04/21 00:24:32;;;;;;;9.15;1.80;;;;;;;;;;5255883;26;97264;-51
2024/04/21 00:26:58;;;;;;;7.18;0.85;;;;;;;;;;5262506;26;96549;-51
2024/04/21 00:29:23;;;;;;;7.22;1.08;;;;;;;;;;5295686;26;99374;-50
2024/04/21 00:31:49;;;;;;;9.98;2.15;;;;;;;;;;5263102;26;97386;-51
2024/04/21 00:34:14;;;;;;;9.02;1.00;;;;;;;;;;5316417;26;97357;-51
2024/04/21 00:36:40;;;;;;;11.10;1.48;;;;;;;;;;5300216;26;99048;-51
2024/04/21 00:39:05;;;;;;;4.47;0.93;;;;;;;;;;5315176;26;95765;-55
2024/04/21 00:41:31;;;;;;;10.15;1.27;;;;;;;;;;5262664;26;96569;-56
2024/04/21 00:43:56;;;;;;;8.07;1.00;;;;;;;;;;5264047;26;95980;-52
2024/04/21 00:46:21;;;;;;;8.40;0.90;;;;;;;;;;5264818;26;95993;-50
2024/04/21 00:48:47;;;;;;;7.07;1.38;;;;;;;;;;5264188;26;96446;-51
2024/04/21 00:51:13;;;;;;;11.85;2.30;;;;;;;;;;5262380;26;97430;-51
2024/04/21 00:53:38;;;;;;;8.35;1.00;;;;;;;;;;5264755;26;96172;-51
2024/04/21 00:56:06;;;;;;;6.95;1.05;;;;;;;;;;5263555;26;96079;-52
2024/04/21 00:58:31;;;;;;;10.27;2.15;;;;;;;;;;5268105;26;96659;-51
2024/04/21 01:00:58;;;;;;;5.72;0.90;;;;;;;;;;5265413;26;96041;-52
2024/04/21 01:03:24;;;;;;;7.55;1.40;;;;;;;;;;5254655;26;96152;-51
2024/04/21 01:05:49;;;;;;;7.53;0.85;;;;;;;;;;5262267;26;95949;-51
2024/04/21 01:08:15;;;;;;;4.72;1.17;;;;;;;;;;5264048;26;97138;-51
2024/04/21 01:10:40;;;;;;;8.38;1.02;;;;;;;;;;5264153;26;96558;-52
2024/04/21 01:13:10;;;;;;;8.68;0.90;;;;;;;;;;5263975;26;95748;-51
2024/04/21 01:15:36;;;;;;;8.65;1.05;;;;;;;;;;5304381;26;97308;-51
2024/04/21 01:18:04;;;;;;;10.77;1.70;;;;;;;;;;5242022;26;99314;-50
2024/04/21 01:20:30;;;;;;;10.45;1.10;;;;;;;;;;5246896;26;95830;-50
2024/04/21 01:22:56;;;;;;;5.78;0.80;;;;;;;;;;5263986;26;96023;-51
2024/04/21 01:25:21;;;;;;;8.60;1.50;;;;;;;;;;5264208;26;96488;-51
2024/04/21 01:27:46;;;;;;;10.25;1.90;;;;;;;;;;5263987;26;96196;-51
2024/04/21 01:30:12;;;;;;;6.55;1.40;;;;;;;;;;5246989;26;98261;-51
2024/04/21 01:32:39;;;;;;;7.03;0.98;;;;;;;;;;5247791;26;95920;-52
2024/04/21 01:35:04;;;;;;;6.85;1.15;;;;;;;;;;5262552;26;96617;-52
2024/04/21 01:37:30;;;;;;;8.00;1.08;;;;;;;;;;5264092;26;95962;-50
2024/04/21 01:39:56;;;;;;;5.70;1.20;;;;;;;;;;5260648;26;96235;-56
2024/04/21 01:42:21;;;;;;;3.90;0.90;;;;;;;;;;5267289;26;95848;-56
2024/04/21 01:44:46;;;;;;;5.47;1.10;;;;;;;;;;5263077;26;96677;-51
2024/04/21 01:47:11;;;;;;;6.63;1.23;;;;;;;;;;5256111;26;98834;-50
2024/04/21 01:49:37;;;;;;;6.18;1.63;;;;;;;;;;5263061;26;95949;-52
2024/04/21 01:52:02;;;;;;;7.68;1.60;;;;;;;;;;5312139;26;95888;-52
2024/04/21 01:54:28;;;;;;;6.88;1.17;;;;;;;;;;5264168;26;95930;-49
2024/04/21 01:56:53;;;;;;;5.60;1.10;;;;;;;;;;5261632;26;95994;-52
2024/04/21 01:59:18;;;;;;;8.90;1.27;;;;;;;;;;5260189;26;98063;-51
2024/04/21 02:01:43;;;;;;;5.72;1.10;;;;;;;;;;5264315;26;95983;-51
2024/04/21 02:04:09;;;;;;;7.25;1.23;;;;;;;;;;5265399;26;95779;-52
2024/04/21 02:06:37;;;;;;;5.85;1.35;;;;;;;;;;5261934;26;97813;-52
2024/04/21 02:09:02;;;;;;;10.57;1.48;;;;;;;;;;5264057;26;96041;-52
2024/04/21 02:11:28;;;;;;;7.60;1.80;;;;;;;;;;5262553;26;95664;-53
2024/04/21 02:13:53;;;;;;;12.13;1.90;;;;;;;;;;5279986;26;98765;-52
2024/04/21 02:16:18;;;;;;;10.55;1.50;;;;;;;;;;5261134;26;97741;-52
2024/04/21 02:18:44;;;;;;;9.05;1.10;;;;;;;;;;5263734;26;95926;-52
2024/04/21 02:21:09;;;;;;;6.25;0.90;;;;;;;;;;5234040;26;98654;-52
2024/04/21 02:23:34;;;;;;;5.88;1.42;;;;;;;;;;5252095;26;97760;-56
2024/04/21 02:26:01;;;;;;;10.57;2.15;;;;;;;;;;5256162;26;97275;-57
2024/04/21 02:28:26;;;;;;;8.55;1.13;;;;;;;;;;5264278;26;96604;-52
2024/04/21 02:30:52;;;;;;;6.70;1.23;;;;;;;;;;5261435;26;96230;-51
2024/04/21 02:33:18;;;;;;;12.10;2.05;;;;;;;;;;5234652;26;97136;-50
2024/04/21 02:35:44;;;;;;;10.02;1.48;;;;;;;;;;5306585;26;98700;-53
2024/04/21 02:38:11;;;;;;;7.60;1.02;;;;;;;;;;5263825;26;95929;-51
2024/04/21 02:40:37;;;;;;;11.50;1.40;;;;;;;;;;5262847;26;96084;-53
2024/04/21 02:43:03;;;;;;;9.45;1.27;;;;;;;;;;5265000;26;96007;-52
2024/04/21 02:45:29;;;;;;;6.38;1.30;;;;;;;;;;5265585;26;95486;-52
2024/04/21 02:47:54;;;;;;;12.70;1.30;;;;;;;;;;5251417;26;96052;-52
2024/04/21 02:50:19;;;;;;;6.32;0.98;;;;;;;;;;5258205;26;95824;-53
2024/04/21 02:52:45;;;;;;;8.00;1.58;;;;;;;;;;5260495;26;96424;-53
2024/04/21 02:55:10;;;;;;;7.45;0.88;;;;;;;;;;5253771;26;95971;-51
2024/04/21 02:57:35;;;;;;;11.93;0.98;;;;;;;;;;5226492;26;96242;-51
2024/04/21 03:00:02;;;;;;;8.98;1.05;;;;;;;;;;5264931;26;98749;-52
2024/04/21 03:02:27;;;;;;;7.28;1.70;;;;;;;;;;5229913;26;98758;-52
2024/04/21 03:04:53;;;;;;;10.98;1.10;;;;;;;;;;5246457;26;95610;-52
2024/04/21 03:07:18;;;;;;;11.00;1.48;;;;;;;;;;5260171;26;96022;-51
2024/04/21 03:09:43;;;;;;;6.32;0.77;;;;;;;;;;5256181;26;95867;-52
2024/04/21 03:12:09;;;;;;;9.20;1.35;;;;;;;;;;5230319;26;98607;-52
2024/04/21 03:14:35;;;;;;;8.90;0.70;;;;;;;;;;5220419;26;97477;-51
2024/04/21 03:17:02;;;;;;;6.28;1.10;;;;;;;;;;5259211;26;95957;-50
2024/04/21 03:19:28;;;;;;;10.57;1.08;;;;;;;;;;5263443;26;98724;-51
2024/04/21 03:21:53;;;;;;;5.90;1.35;;;;;;;;;;5283702;26;98707;-52
2024/04/21 03:24:19;;;;;;;6.13;0.80;;;;;;;;;;5264922;26;96082;-50
2024/04/21 03:26:44;;;;;;;3.47;0.82;;;;;;;;;;5253399;26;95994;-52
2024/04/21 03:29:09;;;;;;;6.15;0.80;;;;;;;;;;5256211;26;96000;-50
2024/04/21 03:31:35;;;;;;;5.55;0.90;;;;;;;;;;5256896;26;95898;-50
2024/04/21 03:34:00;;;;;;;6.88;0.90;;;;;;;;;;5252432;26;96543;-56
2024/04/21 03:36:25;;;;;;;6.55;0.88;;;;;;;;;;5260217;26;97165;-56
2024/04/21 03:38:51;;;;;;;8.88;1.25;;;;;;;;;;5254926;26;97139;-51
2024/04/21 03:41:16;;;;;;;6.55;0.77;;;;;;;;;;5262843;26;95969;-49
2024/04/21 03:43:43;;;;;;;6.30;0.80;;;;;;;;;;5234096;26;96062;-51
2024/04/21 03:46:09;;;;;;;9.75;0.85;;;;;;;;;;5260104;26;95949;-50
2024/04/21 03:48:35;;;;;;;11.30;1.05;;;;;;;;;;5262490;26;95685;-50
2024/04/21 03:51:00;;;;;;;4.80;1.05;;;;;;;;;;5261369;26;96252;-50
2024/04/21 03:53:26;;;;;;;4.57;0.70;;;;;;;;;;5253458;26;96084;-56
2024/04/21 03:55:52;;;;;;;11.60;1.15;;;;;;;;;;5264298;26;96112;-56
2024/04/21 03:58:17;;;;;;;7.25;0.98;;;;;;;;;;5262513;26;98834;-49
2024/04/21 04:00:43;;;;;;;7.78;0.70;;;;;;;;;;5259831;26;96348;-51
2024/04/21 04:03:09;;;;;;;9.30;1.00;;;;;;;;;;5258403;26;95902;-51
2024/04/21 04:05:34;;;;;;;8.38;0.70;;;;;;;;;;5276329;26;98370;-51
2024/04/21 04:07:59;;;;;;;11.15;0.88;;;;;;;;;;5242823;26;96070;-50
2024/04/21 04:10:25;;;;;;;8.80;0.85;;;;;;;;;;5253499;26;95995;-50
2024/04/21 04:12:50;;;;;;;5.35;0.70;;;;;;;;;;5276605;26;97581;-51
2024/04/21 04:15:16;;;;;;;6.95;1.10;;;;;;;;;;5292444;26;96344;-52
2024/04/21 04:17:41;;;;;;;6.03;0.70;;;;;;;;;;5260638;26;97085;-50
2024/04/21 04:20:07;;;;;;;9.07;0.90;;;;;;;;;;5253841;26;97617;-49
2024/04/21 04:22:39;;;;;;;9.43;1.08;;;;;;;;;;5285704;26;96028;-51
2024/04/21 04:25:05;;;;;;;7.65;0.60;;;;;;;;;;5232707;26;98643;-52
2024/04/21 04:27:30;;;;;;;5.35;0.55;;;;;;;;;;5283090;26;98923;-50
2024/04/21 04:29:55;;;;;;;7.75;1.08;;;;;;;;;;5261962;26;95510;-51
2024/04/21 04:32:21;;;;;;;5.22;0.75;;;;;;;;;;5266297;26;96491;-52
2024/04/21 04:34:48;;;;;;;6.40;1.60;;;;;;;;;;5243059;26;97475;-56
2024/04/21 04:37:13;;;;;;;8.00;0.80;;;;;;;;;;5264053;26;96332;-56
2024/04/21 04:39:39;;;;;;;7.28;0.60;;;;;;;;;;5240551;26;98906;-51
2024/04/21 04:42:04;;;;;;;6.13;1.15;;;;;;;;;;5262209;26;95904;-50
2024/04/21 04:44:30;;;;;;;9.48;0.80;;;;;;;;;;5262070;26;97238;-56
2024/04/21 04:46:55;;;;;;;7.70;0.65;;;;;;;;;;5253871;26;96571;-55
2024/04/21 04:49:21;;;;;;;6.60;0.90;;;;;;;;;;5256106;26;97597;-56
2024/04/21 04:51:46;;;;;;;8.98;1.98;;;;;;;;;;5292863;26;99386;-56
2024/04/21 04:54:11;;;;;;;4.97;0.73;;;;;;;;;;5267976;26;96603;-51
2024/04/21 04:56:37;;;;;;;6.50;0.70;;;;;;;;;;5261624;26;98913;-49
2024/04/21 04:59:02;;;;;;;5.57;0.60;;;;;;;;;;5263454;26;96124;-56
2024/04/21 05:01:27;;;;;;;5.30;0.70;;;;;;;;;;5263481;26;97787;-56
2024/04/21 05:03:53;;;;;;;6.72;0.98;;;;;;;;;;5252205;26;99005;-52
2024/04/21 05:06:18;;;;;;;10.00;1.38;;;;;;;;;;5255127;26;99669;-50
2024/04/21 05:08:43;;;;;;;5.85;0.70;;;;;;;;;;5226247;26;1151827;-50
2024/04/21 05:11:09;;;;;;;5.72;0.70;;;;;;;;;;5263853;26;96073;-51
2024/04/21 05:13:34;;;;;;;6.22;2.05;;;;;;;;;;5255453;26;96003;-51
2024/04/21 05:15:59;;;;;;;6.40;0.98;;;;;;;;;;5304304;26;96025;-51
2024/04/21 05:18:25;;;;;;;6.45;1.20;;;;;;;;;;5264294;26;97418;-50
2024/04/21 05:20:50;;;;;;;8.25;0.82;;;;;;;;;;5263800;26;95983;-51
2024/04/21 05:23:15;;;;;;;10.90;1.33;;;;;;;;;;5264785;26;96010;-53
2024/04/21 05:25:41;;;;;;;10.48;1.00;;;;;;;;;;5264208;26;95912;-54
2024/04/21 05:28:06;;;;;;;4.70;1.17;;;;;;;;;;5251321;26;95955;-50
2024/04/21 05:30:31;;;;;;;7.22;1.02;;;;;;;;;;5262319;26;98910;-56
2024/04/21 05:32:57;;;;;;;6.18;0.85;;;;;;;;;;5252089;26;97170;-56
2024/04/21 05:35:22;;;;;;;6.40;0.90;;;;;;;;;;5254293;26;98306;-56
2024/04/21 05:37:47;;;;;;;27.52;2.17;;;;;;;;;;5264745;26;97220;-56
2024/04/21 05:40:13;;;;;;;7.45;0.90;;;;;;;;;;5261909;26;97478;-49
2024/04/21 05:42:38;;;;;;;4.03;0.88;;;;;;;;;;5289901;26;97211;-49
2024/04/21 05:45:04;;;;;;;6.13;1.10;;;;;;;;;;5287562;26;97753;-50
2024/04/21 05:47:30;;;;;;;5.22;0.98;;;;;;;;;;5299307;26;95651;-49
2024/04/21 05:49:55;;;;;;;6.53;0.80;;;;;;;;;;5257488;26;96345;-50
2024/04/21 05:52:20;;;;;;;4.50;0.73;;;;;;;;;;5260262;26;96300;-49
2024/04/21 05:54:46;;;;;;;7.05;0.73;;;;;;;;;;5255566;26;97097;-50
2024/04/21 05:57:11;;;;;;;7.43;0.80;;;;;;;;;;5259267;26;95971;-50
2024/04/21 05:59:36;;;;;;;4.95;0.60;;;;;;;;;;5290010;26;97683;-51
2024/04/21 06:02:02;;;;;;;5.68;1.67;;;;;;;;;;5261133;26;95931;-52
2024/04/21 06:04:30;;;;;;;29.00;2.28;;;;;;;;;;5260211;26;97838;-50
2024/04/21 06:06:55;;;;;;;36.00;2.42;;;;;;;;;;5282074;26;96882;-51
2024/04/21 06:09:21;;;;;;;9.85;0.80;;;;;;;;;;5259685;26;98556;-50
2024/04/21 06:11:46;;;;;;;6.72;1.15;;;;;;;;;;5250918;26;95963;-50
2024/04/21 06:14:12;;;;;;;6.70;0.90;;;;;;;;;;5263280;26;95803;-56
2024/04/21 06:16:37;;;;;;;10.55;1.27;;;;;;;;;;5258804;26;95963;-56
2024/04/21 06:19:02;;;;;;;12.63;1.23;;;;;;;;;;5260280;26;96845;-50
2024/04/21 06:21:27;;;;;;;4.43;0.77;;;;;;;;;;5251310;26;98732;-51
2024/04/21 06:23:53;;;;;;;6.57;1.05;;;;;;;;;;5262322;26;96269;-50
2024/04/21 06:26:18;;;;;;;6.18;0.80;;;;;;;;;;5237339;26;95834;-51
2024/04/21 06:28:44;;;;;;;8.45;1.50;;;;;;;;;;5247744;26;96118;-57
2024/04/21 06:31:09;;;;;;;5.10;0.80;;;;;;;;;;5299486;26;97696;-56
2024/04/21 06:33:34;;;;;;;5.18;0.68;;;;;;;;;;5261245;26;95919;-50
2024/04/21 06:36:00;;;;;;;8.57;1.00;;;;;;;;;;5261105;26;95920;-55
2024/04/21 06:38:26;;;;;;;6.07;1.35;;;;;;;;;;5276848;26;98883;-55
2024/04/21 06:40:51;;;;;;;4.72;0.60;;;;;;;;;;5265255;26;96046;-54
2024/04/21 06:43:16;;;;;;;5.00;0.45;;;;;;;;;;5257854;26;97907;-54
2024/04/21 06:45:48;;;;;;;22.02;1.67;;;;;;;;;;5259003;26;97666;-55
2024/04/21 06:48:14;;;;;;;8.23;0.82;;;;;;;;;;5258902;26;96079;-55
2024/04/21 06:50:44;;;;;;;8.73;0.95;;;;;;;;;;5258587;26;97808;-54
2024/04/21 06:53:10;;;;;;;;;;;;;;;;;;5258040;26;97908;-55
2024/04/21 06:55:35;;;;;;;6.32;0.85;;;;;;;;;;5258607;26;96037;-54
2024/04/21 06:58:00;;;;;;;7.45;0.57;;;;;;;;;;5286690;26;97525;-53
2024/04/21 07:00:26;;;;;;;5.93;1.10;;;;;;;;;;5252551;26;95621;-55
2024/04/21 07:02:51;;;;;;;6.10;0.68;;;;;;;;;;5283513;26;97092;-55
2024/04/21 07:05:16;;;;;;;8.20;0.77;;;;;;;;;;5246293;26;95979;-55
2024/04/21 07:07:41;;;;;;;4.70;1.10;;;;;;;;;;5258591;26;97477;-54
2024/04/21 07:10:07;;;;;;;7.85;1.08;;;;;;;;;;5250410;26;97708;-54
2024/04/21 07:12:32;;;;;;;8.73;0.88;;;;;;;;;;5262860;26;95929;-54
2024/04/21 07:14:58;;;;;;;9.95;0.85;;;;;;;;;;5249188;26;99554;-55
2024/04/21 07:17:23;;;;;;;5.40;0.80;;;;;;;;;;5260560;26;98768;-54
2024/04/21 07:19:48;;;;;;;7.10;0.70;;;;;;;;;;5269325;26;95964;-54
2024/04/21 07:22:14;;;;;;;8.68;0.93;;;;;;;;;;5237626;26;97192;-55
2024/04/21 07:24:39;;;;;;;5.18;0.80;;;;;;;;;;5290877;26;98613;-54
2024/04/21 07:27:04;;;;;;;5.90;0.63;;;;;;;;;;5258318;26;98894;-55
2024/04/21 07:29:30;;;;;;;7.32;1.00;;;;;;;;;;5294067;26;98798;-55
2024/04/21 07:31:55;;;;;;;12.02;1.52;;;;;;;;;;5229960;26;95858;-54
2024/04/21 07:34:21;;;;;;;12.55;1.15;;;;;;;;;;5260717;26;95945;-55
2024/04/21 07:36:46;;;;;;;7.28;0.65;;;;;;;;;;5254006;26;96425;-55
2024/04/21 07:39:13;;;;;;;13.43;1.35;;;;;;;;;;5260639;26;95988;-55
2024/04/21 07:41:40;;;;;;;8.38;0.75;;;;;;;;;;5240959;26;98929;-54
2024/04/21 07:44:05;;;;;;;9.02;0.82;;;;;;;;;;5238056;26;98783;-54
2024/04/21 07:46:31;;;;;;;7.05;0.60;;;;;;;;;;5264042;26;95725;-54
2024/04/21 07:48:56;;;;;;;7.40;0.98;;;;;;;;;;5260922;26;96271;-54
2024/04/21 07:51:21;;;;;;;10.20;0.95;;;;;;;;;;5259400;26;96307;-54
2024/04/21 07:53:47;;;;;;;9.70;1.10;;;;;;;;;;5260910;26;95944;-54
2024/04/21 07:56:12;;;;;;;17.77;1.25;;;;;;;;;;5260666;26;96129;-54
2024/04/21 07:58:38;;;;;;;8.18;0.70;;;;;;;;;;5257874;26;95778;-54
2024/04/21 08:01:09;;;;;;;9.88;0.70;;;;;;;;;;5261317;26;96215;-53
2024/04/21 08:03:35;;;;;;;8.07;0.75;;;;;;;;;;5263967;26;97633;-54
2024/04/21 08:06:01;;;;;;;5.82;0.47;;;;;;;;;;5237595;26;97761;-54
2024/04/21 08:08:27;;;;;;;9.68;0.50;;;;;;;;;;5296619;26;97306;-54
2024/04/21 08:10:56;;;;;;;5.97;0.50;;;;;;;;;;5265022;26;95827;-54
2024/04/21 08:13:22;;;;;;;;;;;;;;;;;;5302055;26;97186;-54
2024/04/21 08:15:47;;;;;;;7.70;0.73;;;;;;;;;;5257501;26;98379;-54
2024/04/21 08:18:12;;;;;;;7.95;0.60;;;;;;;;;;5236506;26;95984;-54
2024/04/21 08:20:38;;;;;;;6.20;0.70;;;;;;;;;;5285805;26;97284;-53
2024/04/21 08:23:04;;;;;;;8.93;0.85;;;;;;;;;;5265353;26;97887;-54
2024/04/21 08:25:29;;;;;;;9.05;0.73;;;;;;;;;;5263584;26;97491;-55
2024/04/21 08:27:54;;;;;;;8.10;0.70;;;;;;;;;;5257964;26;96220;-55
2024/04/21 08:30:20;;;;;;;8.45;0.68;;;;;;;;;;5236545;26;97437;-51
2024/04/21 08:32:46;;;;;;;10.25;0.60;;;;;;;;;;5248519;26;97721;-51
2024/04/21 08:35:11;;;;;;;9.50;1.13;;;;;;;;;;5282920;26;97399;-55
2024/04/21 08:37:37;;;;;;;4.13;0.50;;;;;;;;;;5291995;26;96336;-55
2024/04/21 08:40:03;;;;;;;20.60;1.08;;;;;;;;;;5233569;26;97190;-55
2024/04/21 08:42:34;;;;;;;7.28;0.77;;;;;;;;;;5259727;26;98564;-54
2024/04/21 08:45:00;;;;;;;11.70;0.75;;;;;;;;;;5240533;26;95916;-55
2024/04/21 08:47:27;;;;;;;11.25;1.80;;;;;;;;;;5287564;26;97192;-54
2024/04/21 08:49:54;;;;;;;5.60;0.55;;;;;;;;;;5262149;26;96008;-54
2024/04/21 08:52:22;;;;;;;6.80;0.73;;;;;;;;;;5263520;26;96030;-54
2024/04/21 08:54:47;;;;;;;6.28;0.90;;;;;;;;;;5263621;26;95980;-55
2024/04/21 08:57:16;;;;;;;7.75;0.68;;;;;;;;;;5265442;26;95809;-55
2024/04/21 08:59:42;;;;;;;8.13;0.50;;;;;;;;;;5260840;26;96021;-55
2024/04/21 09:02:10;;;;;;;6.88;0.73;;;;;;;;;;5253035;26;97033;-54
2024/04/21 09:04:39;;;;;;;8.10;0.40;;;;;;;;;;5258665;26;97205;-50
2024/04/21 09:07:06;;;;;;;7.78;0.40;;;;;;;;;;5282881;26;98800;-50
2024/04/21 09:09:32;;;;;;;6.63;0.55;;;;;;;;;;5262503;26;96127;-50
2024/04/21 09:11:57;;;;;;;8.73;0.90;;;;;;;;;;5263679;26;95901;-51
2024/04/21 09:14:22;;;;;;;6.53;0.57;;;;;;;;;;5248355;26;97471;-50
2024/04/21 09:16:48;;;;;;;6.82;0.32;;;;;;;;;;5262931;26;97500;-50
2024/04/21 09:19:14;;;;;;;7.60;0.85;;;;;;;;;;5261254;26;96473;-51
2024/04/21 09:21:40;;;;;;;3.85;0.20;;;;;;;;;;5242416;26;97212;-50
2024/04/21 09:24:07;;;;;;;7.20;0.38;;;;;;;;;;5260596;26;95674;-50
2024/04/21 09:26:33;;;;;;;5.10;0.35;;;;;;;;;;5259899;26;97233;-51
2024/04/21 09:28:58;;;;;;;5.88;0.43;;;;;;;;;;5261189;26;95978;-50
2024/04/21 09:31:26;;;;;;;8.50;0.35;;;;;;;;;;5279444;26;98998;-50
2024/04/21 09:33:52;;;;;;;4.07;0.40;;;;;;;;;;5287666;26;97779;-50
2024/04/21 09:36:18;;;;;;;3.40;0.20;;;;;;;;;;5296631;26;95926;-51
2024/04/21 09:38:46;;;;;;;7.32;0.70;;;;;;;;;;5235598;26;97117;-50
2024/04/21 09:41:13;;;;;;;3.85;0.95;;;;;;;;;;5245811;26;96483;-50
2024/04/21 09:43:40;;;;;;;4.13;0.40;;;;;;;;;;5265645;26;95763;-50
2024/04/21 09:46:05;;;;;;;2.80;0.30;;;;;;;;;;5265866;26;95990;-50
2024/04/21 09:48:33;;;;;;;6.68;0.55;;;;;;;;;;5265032;26;97526;-49
2024/04/21 09:50:58;;;;;;;7.25;0.40;;;;;;;;;;5263185;26;96080;-51
2024/04/21 09:53:26;;;;;;;6.32;0.50;;;;;;;;;;5245894;26;97217;-50
2024/04/21 09:55:55;;;;;;;5.88;0.30;;;;;;;;;;5257616;26;97460;-50
2024/04/21 09:58:23;;;;;;;4.57;0.20;;;;;;;;;;5255062;26;96870;-50
2024/04/21 10:00:52;;;;;;;12.32;0.90;;;;;;;;;;5259758;26;96096;-50
2024/04/21 10:03:18;;;;;;;8.40;0.30;;;;;;;;;;5235535;26;96091;-51
2024/04/21 10:05:44;;;;;;;3.50;0.30;;;;;;;;;;5252835;26;97392;-50
2024/04/21 10:08:10;;;;;;;6.97;0.28;;;;;;;;;;5255114;26;96092;-49
2024/04/21 10:10:38;;;;;;;6.00;0.25;;;;;;;;;;5285281;26;95644;-50
2024/04/21 10:13:05;;;;;;;6.95;0.63;;;;;;;;;;5282356;26;97748;-51
2024/04/21 10:15:32;;;;;;;4.90;0.20;;;;;;;;;;5250372;26;95966;-48
2024/04/21 10:17:59;;;;;;;2.75;0.25;;;;;;;;;;5257729;26;95490;-48
2024/04/21 10:20:33;;;;;;;0.98;0.10;;;;;;;;;;5251109;26;96800;-50
2024/04/21 10:23:05;;;;;;;4.00;0.30;;;;;;;;;;5230418;26;95950;-50
2024/04/21 10:25:34;;;;;;;2.85;0.40;;;;;;;;;;5246014;26;95990;-50
2024/04/21 10:28:06;;;;;;;4.40;0.40;;;;;;;;;;5286570;26;97203;-51
2024/04/21 10:30:32;;;;;;;4.90;0.20;;;;;;;;;;5230405;26;96508;-51
2024/04/21 10:32:59;;;;;;;4.43;0.30;;;;;;;;;;5260599;26;95911;-51
2024/04/21 10:35:30;;;;;;;6.13;1.00;;;;;;;;;;5258428;26;97951;-50
2024/04/21 10:37:56;;;;;;;5.13;0.30;;;;;;;;;;5251679;26;95924;-53
2024/04/21 10:40:21;;;;;;;5.15;0.75;;;;;;;;;;5286328;26;97432;-49
2024/04/21 10:42:53;;;;;;;2.75;0.25;;;;;;;;;;5256350;26;97161;-49
2024/04/21 10:45:20;;;;;;;9.60;0.77;;;;;;;;;;5255816;26;96248;-50
2024/04/21 10:47:45;;;;;;;4.65;0.35;;;;;;;;;;5238480;26;97407;-50
2024/04/21 10:50:11;;;;;;;6.45;0.30;;;;;;;;;;5259965;26;97071;-51
2024/04/21 10:52:36;;;;;;;3.03;0.10;;;;;;;;;;5256741;26;97845;-51
2024/04/21 10:55:02;;;;;;;2.95;0.10;;;;;;;;;;5261701;26;96034;-51
2024/04/21 10:57:28;;;;;;;4.85;0.47;;;;;;;;;;5259298;26;95853;-51
2024/04/21 10:59:53;;;;;;;4.13;0.30;;;;;;;;;;5255355;26;98682;-50
2024/04/21 11:02:19;;;;;;;3.10;0.30;;;;;;;;;;5245747;26;95762;-51
2024/04/21 11:04:44;;;;;;;5.40;1.73;;;;;;;;;;5251633;26;99586;-51
2024/04/21 11:07:10;;;;;;;5.13;0.30;;;;;;;;;;5256461;26;96029;-51
2024/04/21 11:09:36;;;;;;;1.40;0.13;;;;;;;;;;5254646;26;97903;-49
2024/04/21 11:12:02;;;;;;;2.20;0.35;;;;;;;;;;5257738;26;97319;-49
2024/04/21 11:14:27;;;;;;;2.90;0.40;;;;;;;;;;5284136;26;100576;-50
2024/04/21 11:16:53;;;;;;;4.18;0.30;;;;;;;;;;5253966;26;97406;-49
2024/04/21 11:19:19;;;;;;;3.55;0.20;;;;;;;;;;5284107;26;97269;-50
2024/04/21 11:21:45;;;;;;;3.00;0.28;;;;;;;;;;5298074;26;97241;-51
2024/04/21 11:24:10;;;;;;;2.25;0.22;;;;;;;;;;5259362;26;96213;-49
2024/04/21 11:26:36;;;;;;;2.42;0.20;;;;;;;;;;5261784;26;96049;-50
2024/04/21 11:29:01;;;;;;;3.65;0.30;;;;;;;;;;5262079;26;95683;-50
2024/04/21 11:31:27;;;;;;;1.85;0.20;;;;;;;;;;5260460;26;96117;-50
2024/04/21 11:34:00;;;;;;;4.22;0.43;;;;;;;;;;5230129;26;97513;-50
2024/04/21 11:36:25;;;;;;;9.18;1.58;;;;;;;;;;5233551;26;96099;-50
2024/04/21 11:38:51;;;;;;;4.35;0.20;;;;;;;;;;5234834;26;97180;-51
2024/04/21 11:41:16;;;;;;;2.10;0.20;;;;;;;;;;5250664;26;98346;-50
2024/04/21 11:43:49;;;;;;;4.47;0.40;;;;;;;;;;5264848;26;95846;-50
2024/04/21 11:46:15;;;;;;;4.53;0.30;;;;;;;;;;5238033;26;97425;-51
2024/04/21 11:48:40;;;;;;;3.80;0.20;;;;;;;;;;5252761;26;95941;-50
2024/04/21 11:51:06;;;;;;;5.13;0.20;;;;;;;;;;5256058;26;97614;-50
2024/04/21 11:53:32;;;;;;;6.63;0.20;;;;;;;;;;5233538;26;97609;-50
2024/04/21 11:55:58;;;;;;;3.20;0.20;;;;;;;;;;5256594;26;96351;-51
2024/04/21 11:58:23;;;;;;;2.75;0.40;;;;;;;;;;5256352;26;96042;-51
2024/04/21 12:00:49;;;;;;;6.57;0.22;;;;;;;;;;5240120;26;97325;-51
2024/04/21 12:03:16;;;;;;;3.33;0.28;;;;;;;;;;5260537;26;97292;-49
2024/04/21 12:05:44;;;;;;;2.22;0.20;;;;;;;;;;5262977;26;96159;-51
2024/04/21 12:08:10;;;;;;;5.57;0.25;;;;;;;;;;5252298;26;95621;-50
2024/04/21 12:10:36;;;;;;;4.63;0.63;;;;;;;;;;5232009;26;98652;-51
2024/04/21 12:13:02;;;;;;;2.50;0.20;;;;;;;;;;5257720;26;98235;-50
2024/04/21 12:15:28;;;;;;;3.33;0.20;;;;;;;;;;5230726;26;97507;-50
2024/04/21 12:18:05;;;;;;;2.17;0.20;;;;;;;;;;5258423;26;96048;-51
2024/04/21 12:20:30;;;;;;;4.93;1.10;;;;;;;;;;5260373;26;96215;-50
2024/04/21 12:22:55;;;;;;;4.95;0.20;;;;;;;;;;5287714;26;97200;-50
2024/04/21 12:25:21;;;;;;;4.60;0.77;;;;;;;;;;5256764;26;97873;-51
2024/04/21 12:27:46;;;;;;;5.45;0.40;;;;;;;;;;5265962;26;95808;-50
2024/04/21 12:30:12;;;;;;;3.90;0.73;;;;;;;;;;5247568;26;96102;-50
2024/04/21 12:32:37;;;;;;;3.00;0.30;;;;;;;;;;5255051;26;96133;-50
2024/04/21 12:35:03;;;;;;;4.90;0.30;;;;;;;;;;5261795;26;95805;-51
2024/04/21 12:37:28;;;;;;;4.38;0.30;;;;;;;;;;5248089;26;96783;-51
2024/04/21 12:39:53;;;;;;;4.80;0.57;;;;;;;;;;5257684;26;98093;-51
2024/04/21 12:42:19;;;;;;;3.15;0.43;;;;;;;;;;5258412;26;96157;-50
2024/04/21 12:44:44;;;;;;;3.38;0.80;;;;;;;;;;5292391;26;96159;-51
2024/04/21 12:47:10;;;;;;;2.08;0.20;;;;;;;;;;5260303;26;95975;-51
2024/04/21 12:49:35;;;;;;;3.83;0.50;;;;;;;;;;5228597;26;97521;-50
2024/04/21 12:52:00;;;;;;;4.65;0.40;;;;;;;;;;5252189;26;96071;-50
2024/04/21 12:54:26;;;;;;;4.65;0.20;;;;;;;;;;5260294;26;96007;-51
2024/04/21 12:56:51;;;;;;;3.25;0.30;;;;;;;;;;5262634;26;96150;-51
2024/04/21 12:59:16;;;;;;;2.28;0.22;;;;;;;;;;5260616;26;96114;-50
2024/04/21 13:01:42;;;;;;;4.07;0.30;;;;;;;;;;5259889;26;98085;-50
2024/04/21 13:04:07;;;;;;;3.58;0.30;;;;;;;;;;5261800;26;96188;-50
2024/04/21 13:06:33;;;;;;;3.17;0.20;;;;;;;;;;5233894;26;97144;-51
2024/04/21 13:09:00;;;;;;;5.35;0.40;;;;;;;;;;5251886;26;96668;-50
2024/04/21 13:11:26;;;;;;;11.02;1.77;;;;;;;;;;5262611;26;96064;-50
2024/04/21 13:13:52;;;;;;;5.28;0.35;;;;;;;;;;5259725;26;95909;-50
2024/04/21 13:16:17;;;;;;;4.53;0.30;;;;;;;;;;5257404;26;98431;-50
2024/04/21 13:18:42;;;;;;;3.88;0.30;;;;;;;;;;5262438;26;96776;-50
2024/04/21 13:21:08;;;;;;;5.00;0.45;;;;;;;;;;5256337;26;96235;-50
2024/04/21 13:23:33;;;;;;;7.90;0.40;;;;;;;;;;5254459;26;95983;-50
2024/04/21 13:25:58;;;;;;;3.65;0.20;;;;;;;;;;5259680;26;95967;-50
2024/04/21 13:28:24;;;;;;;3.08;0.30;;;;;;;;;;5262371;26;95799;-50
2024/04/21 13:30:49;;;;;;;4.10;0.28;;;;;;;;;;5235437;26;98700;-51
2024/04/21 13:33:14;;;;;;;4.30;0.22;;;;;;;;;;5259265;26;98464;-51
2024/04/21 13:35:40;;;;;;;2.90;0.20;;;;;;;;;;5286997;26;97203;-50
2024/04/21 13:38:05;;;;;;;3.03;0.20;;;;;;;;;;5259266;26;96026;-49
2024/04/21 13:40:30;;;;;;;5.55;0.30;;;;;;;;;;5261393;26;96038;-51
2024/04/21 13:42:56;;;;;;;7.75;0.30;;;;;;;;;;5256721;26;95900;-50
2024/04/21 13:45:21;;;;;;;5.05;0.47;;;;;;;;;;5256096;26;97312;-50
2024/04/21 13:47:46;;;;;;;4.70;0.20;;;;;;;;;;5255977;26;95775;-50
2024/04/21 13:50:11;;;;;;;7.07;0.95;;;;;;;;;;5256176;26;97631;-50
2024/04/21 13:52:37;;;;;;;5.10;0.57;;;;;;;;;;5259192;26;95992;-51
2024/04/21 13:55:02;;;;;;;7.35;0.43;;;;;;;;;;5257051;26;98667;-51
2024/04/21 13:57:28;;;;;;;1.80;0.20;;;;;;;;;;5258271;26;97335;-51
2024/04/21 13:59:53;;;;;;;6.28;0.40;;;;;;;;;;5251765;26;96305;-51
2024/04/21 14:02:19;;;;;;;3.70;0.25;;;;;;;;;;5258259;26;98412;-51
2024/04/21 14:04:45;;;;;;;11.32;0.95;;;;;;;;;;5257113;26;96031;-51
2024/04/21 14:07:10;;;;;;;2.47;0.20;;;;;;;;;;5260147;26;95908;-51
2024/04/21 14:09:36;;;;;;;8.80;0.35;;;;;;;;;;5225852;26;97782;-51
2024/04/21 14:12:01;;;;;;;3.78;0.75;;;;;;;;;;5254085;26;98150;-51
2024/04/21 14:14:27;;;;;;;2.97;0.20;;;;;;;;;;5257134;26;95713;-50
2024/04/21 14:16:52;;;;;;;3.67;0.22;;;;;;;;;;5257481;26;97730;-50
2024/04/21 14:19:18;;;;;;;3.95;0.82;;;;;;;;;;5239121;26;95891;-50
2024/04/21 14:21:43;;;;;;;2.90;0.20;;;;;;;;;;5261908;26;96059;-50
2024/04/21 14:24:08;;;;;;;9.93;0.68;;;;;;;;;;5260429;26;96529;-50
2024/04/21 14:26:34;;;;;;;2.15;0.20;;;;;;;;;;5259448;26;97550;-50
2024/04/21 14:28:59;;;;;;;4.80;0.30;;;;;;;;;;5288316;26;96375;-50
2024/04/21 14:31:24;;;;;;;2.97;0.20;;;;;;;;;;5226054;26;97838;-50